Detall de PIREP

Printer-friendly versionPDF version

[2008/10/13 20:46:00]
Flight IATA:CT3301
Pilot Number:026
Company ICAO:CAT
Aircraft Type:B75F/E
PAX:0
Departing Airport: DAAG
Destination Airport: LEZG
Alternate Airport:LERS
Online: VATSIM
Route:SADAF/N0390F320 UN856 RES UN863 ARBEK/N0390F310 UN725 LOBAR
Flight Level:FL320
No Slew and time accel
No pause
Crash detect
Detect pilot in Cockpit between each 30 and 45 minutes
20:46 Zero fuel Weight: 236080 Lbs, Fuel Weight: 19499 Lbs
20:46 VATSIM:DAAG 132000Z VRB03KT 9999 FEW026 21/20 Q1021
20:46 VATSIM:LEZG 132030Z 00000KT 9000 FEW020 SCT040 19/18 Q1022
20:47 VOICE CATALONIAN
20:50 Parking Brakes off
21:11 Take-off
21:11 Take off Weight: 253316 Lbs
21:11 Wind: 052º @ 002 Knots Heading: 053º
21:11 POS N36º 42´ 23´´ E003º 14´ 28´´
21:11 Gear Up: 189 Knots
21:11 Flaps:2 at 189 Knots
21:11 Flaps:1 at 193 Knots
21:12 Flaps:0 at 217 Knots
21:26 Wind:019º@007 Knots Headi
ng: 329º Ground Speed: 461 Knots Altitude 29550 ft
21:32 TOC
21:32 Fuel Weight: 11347 Lb
21:41 Wind:314º@006 Knots Heading: 353º Ground Speed: 467 Knots Altitude 32263 ft
21:56 Wind:357º@014 Knots Heading: 314º Ground Speed: 460 Knots Altitude 32260 ft
21:56 TOD
21:56 Fuel Weight: 7601 Lb
22:11 Wind:250º@007 Knots Heading: 235º Ground Speed: 263 Knots Altitude 8540 ft
22:20 Flaps:1 at 188 Knots
22:20 Gear Down: 188 Knots
22:20 Flaps:2 at 188 Knots
22:20 Flaps:3 at 184 Knots
22:21 Flaps:4 at 167 Knots
22:22 Gear Up: 181 Knots
22:22 Flaps:3 at 181 Knots
22:23 Flaps:2 at 203 Knots
22:23 Flaps:1 at 204 Knots
22:24 Flaps:0 at 212 Knots
22:26 Wind:250º@005 Knots Heading: 097º Ground Speed: 253 Knots Altitude 4980 ft
22:29 Flaps:1 at 198 Knots
22:30 Flaps:2 at 192 Knots
22:32 Gear Down: 170 Knots
22:32 Flaps:3 at 170 Knots
22:34 Flaps:4 at 161 Knots
22:35 Flap
s:5 at 151 Knots
22:35 TouchDown:Rate -106 ft/min Speed: 142 Knots
22:36 VATSIM:LEZG 132200Z 25003KT 9000 FEW020 18/17 Q1023
22:36 Land
22:36 Wind:213º@001 Knots
22:36 Heading: 299º
22:36 Flight Duration: 01:25
22:36 Landing Weight: 239106 Lbs
22:36 POS N41º 39´ 46´´ W001º 01´ 32´´
22:40 Parking brakes on
22:40 Block to Block Duration: 01:50
22:40 Final Fuel: 2508 Lbls
22:40 Spent Fuel: 16990 Lbls
22:40 Flight Length: 505 NM
22:40 TOD Land Length: 180 NM

Exportar CSV

Powered by Drupal - Modified by Danger4k